sensor_id;sensor_type;location;lat;lon;timestamp;temperature;humidity
25482;DHT22;13395;50.752;4.268;2023-04-30T00:02:07;8.70;99.90
25482;DHT22;13395;50.752;4.268;2023-04-30T00:04:32;8.70;99.90
25482;DHT22;13395;50.752;4.268;2023-04-30T00:06:58;8.70;99.90
25482;DHT22;13395;50.752;4.268;2023-04-30T00:09:23;8.60;99.90
25482;DHT22;13395;50.752;4.268;2023-04-30T00:11:49;8.50;99.90
25482;DHT22;13395;50.752;4.268;2023-04-30T00:14:15;8.40;99.90
25482;DHT22;13395;50.752;4.268;2023-04-30T00:16:40;8.30;99.90
25482;DHT22;13395;50.752;4.268;2023-04-30T00:19:06;8.40;99.90
25482;DHT22;13395;50.752;4.268;2023-04-30T00:21:32;8.40;99.90
25482;DHT22;13395;50.752;4.268;2023-04-30T00:23:58;8.40;99.90
25482;DHT22;13395;50.752;4.268;2023-04-30T00:26:26;8.30;99.90
25482;DHT22;13395;50.752;4.268;2023-04-30T00:28:52;8.40;99.90
25482;DHT22;13395;50.752;4.268;2023-04-30T00:31:18;8.30;99.90
25482;DHT22;13395;50.752;4.268;2023-04-30T00:33:43;8.30;99.90
25482;DHT22;13395;50.752;4.268;2023-04-30T00:36:09;8.20;99.90
25482;DHT22;13395;50.752;4.268;2023-04-30T00:38:34;8.20;99.90
25482;DHT22;13395;50.752;4.268;2023-04-30T00:41:00;8.10;99.90
25482;DHT22;13395;50.752;4.268;2023-04-30T00:43:25;8.10;99.90
25482;DHT22;13395;50.752;4.268;2023-04-30T00:45:51;8.10;99.90
25482;DHT22;13395;50.752;4.268;2023-04-30T00:48:16;8.10;99.90
25482;DHT22;13395;50.752;4.268;2023-04-30T00:50:42;8.20;99.90
25482;DHT22;13395;50.752;4.268;2023-04-30T00:53:08;8.20;99.90
25482;DHT22;13395;50.752;4.268;2023-04-30T00:55:34;8.10;99.90
25482;DHT22;13395;50.752;4.268;2023-04-30T00:58:00;8.10;99.90
25482;DHT22;13395;50.752;4.268;2023-04-30T01:00:26;8.10;99.90
25482;DHT22;13395;50.752;4.268;2023-04-30T01:02:51;8.10;99.90
25482;DHT22;13395;50.752;4.268;2023-04-30T01:05:17;8.20;99.90
25482;DHT22;13395;50.752;4.268;2023-04-30T01:07:43;8.10;99.90
25482;DHT22;13395;50.752;4.268;2023-04-30T01:10:11;8.20;99.90
25482;DHT22;13395;50.752;4.268;2023-04-30T01:12:45;8.00;99.90
25482;DHT22;13395;50.752;4.268;2023-04-30T01:18:17;7.80;99.90
25482;DHT22;13395;50.752;4.268;2023-04-30T01:20:55;7.80;99.90
25482;DHT22;13395;50.752;4.268;2023-04-30T01:28:37;7.60;99.90
25482;DHT22;13395;50.752;4.268;2023-04-30T01:31:10;7.50;99.90
25482;DHT22;13395;50.752;4.268;2023-04-30T01:33:36;7.70;99.90
25482;DHT22;13395;50.752;4.268;2023-04-30T01:38:52;7.30;99.90
25482;DHT22;13395;50.752;4.268;2023-04-30T01:41:21;7.20;99.90
25482;DHT22;13395;50.752;4.268;2023-04-30T01:43:55;7.50;99.90
25482;DHT22;13395;50.752;4.268;2023-04-30T01:46:23;7.40;99.90
25482;DHT22;13395;50.752;4.268;2023-04-30T01:53:59;7.40;99.90
25482;DHT22;13395;50.752;4.268;2023-04-30T01:56:30;7.30;99.90
25482;DHT22;13395;50.752;4.268;2023-04-30T01:58:56;7.30;99.90
25482;DHT22;13395;50.752;4.268;2023-04-30T02:03:51;7.20;99.90
25482;DHT22;13395;50.752;4.268;2023-04-30T02:06:17;7.20;99.90
25482;DHT22;13395;50.752;4.268;2023-04-30T02:08:42;7.20;99.90
25482;DHT22;13395;50.752;4.268;2023-04-30T02:11:08;7.20;99.90
25482;DHT22;13395;50.752;4.268;2023-04-30T02:13:33;7.20;99.90
25482;DHT22;13395;50.752;4.268;2023-04-30T02:15:59;7.30;99.90
25482;DHT22;13395;50.752;4.268;2023-04-30T02:18:24;7.40;99.90
25482;DHT22;13395;50.752;4.268;2023-04-30T02:20:50;7.30;99.90
25482;DHT22;13395;50.752;4.268;2023-04-30T02:23:15;7.30;99.90
25482;DHT22;13395;50.752;4.268;2023-04-30T02:25:41;7.20;99.90
25482;DHT22;13395;50.752;4.268;2023-04-30T02:28:06;7.30;99.90
25482;DHT22;13395;50.752;4.268;2023-04-30T02:30:32;7.10;99.90
25482;DHT22;13395;50.752;4.268;2023-04-30T02:32:57;7.20;99.90
25482;DHT22;13395;50.752;4.268;2023-04-30T02:35:23;7.10;99.90
25482;DHT22;13395;50.752;4.268;2023-04-30T02:37:48;7.10;99.90
25482;DHT22;13395;50.752;4.268;2023-04-30T02:40:13;7.20;99.90
25482;DHT22;13395;50.752;4.268;2023-04-30T02:42:39;7.00;99.90
25482;DHT22;13395;50.752;4.268;2023-04-30T02:45:05;7.10;99.90
25482;DHT22;13395;50.752;4.268;2023-04-30T02:47:30;7.00;99.90
25482;DHT22;13395;50.752;4.268;2023-04-30T02:49:56;6.90;99.90
25482;DHT22;13395;50.752;4.268;2023-04-30T02:52:21;6.80;99.90
25482;DHT22;13395;50.752;4.268;2023-04-30T02:54:47;6.70;99.90
25482;DHT22;13395;50.752;4.268;2023-04-30T02:57:12;6.80;99.90
25482;DHT22;13395;50.752;4.268;2023-04-30T02:59:38;6.80;99.90
25482;DHT22;13395;50.752;4.268;2023-04-30T03:02:03;6.90;99.90
25482;DHT22;13395;50.752;4.268;2023-04-30T03:04:29;6.80;99.90
25482;DHT22;13395;50.752;4.268;2023-04-30T03:06:54;6.70;99.90
25482;DHT22;13395;50.752;4.268;2023-04-30T03:09:20;6.70;99.90
25482;DHT22;13395;50.752;4.268;2023-04-30T03:11:45;6.80;99.90
25482;DHT22;13395;50.752;4.268;2023-04-30T03:14:11;6.70;99.90
25482;DHT22;13395;50.752;4.268;2023-04-30T03:16:36;6.70;99.90
25482;DHT22;13395;50.752;4.268;2023-04-30T03:19:02;6.80;99.90
25482;DHT22;13395;50.752;4.268;2023-04-30T03:21:27;6.80;99.90
25482;DHT22;13395;50.752;4.268;2023-04-30T03:23:53;6.80;99.90
25482;DHT22;13395;50.752;4.268;2023-04-30T03:26:19;6.70;99.90
25482;DHT22;13395;50.752;4.268;2023-04-30T03:28:45;6.60;99.90
25482;DHT22;13395;50.752;4.268;2023-04-30T03:31:10;6.60;99.90
25482;DHT22;13395;50.752;4.268;2023-04-30T03:33:36;6.50;99.90
25482;DHT22;13395;50.752;4.268;2023-04-30T03:36:01;6.50;99.90
25482;DHT22;13395;50.752;4.268;2023-04-30T03:38:27;6.50;99.90
25482;DHT22;13395;50.752;4.268;2023-04-30T03:40:52;6.50;99.90
25482;DHT22;13395;50.752;4.268;2023-04-30T03:43:18;6.50;99.90
25482;DHT22;13395;50.752;4.268;2023-04-30T03:45:43;6.60;99.90
25482;DHT22;13395;50.752;4.268;2023-04-30T03:48:09;6.60;99.90
25482;DHT22;13395;50.752;4.268;2023-04-30T03:50:34;6.50;99.90
25482;DHT22;13395;50.752;4.268;2023-04-30T03:53:00;6.70;99.90
25482;DHT22;13395;50.752;4.268;2023-04-30T03:55:25;6.70;99.90
25482;DHT22;13395;50.752;4.268;2023-04-30T03:57:51;6.50;99.90
25482;DHT22;13395;50.752;4.268;2023-04-30T04:00:16;6.30;99.90
25482;DHT22;13395;50.752;4.268;2023-04-30T04:02:42;6.30;99.90
25482;DHT22;13395;50.752;4.268;2023-04-30T04:05:07;6.20;99.90
25482;DHT22;13395;50.752;4.268;2023-04-30T04:07:33;6.10;99.90
25482;DHT22;13395;50.752;4.268;2023-04-30T04:09:58;6.20;99.90
25482;DHT22;13395;50.752;4.268;2023-04-30T04:12:24;6.20;99.90
25482;DHT22;13395;50.752;4.268;2023-04-30T04:14:51;6.20;99.90
25482;DHT22;13395;50.752;4.268;2023-04-30T04:17:16;6.20;99.90
25482;DHT22;13395;50.752;4.268;2023-04-30T04:19:42;6.10;99.90
25482;DHT22;13395;50.752;4.268;2023-04-30T04:22:07;6.20;99.90
25482;DHT22;13395;50.752;4.268;2023-04-30T04:24:33;6.20;99.90
25482;DHT22;13395;50.752;4.268;2023-04-30T04:26:59;6.20;99.90
25482;DHT22;13395;50.752;4.268;2023-04-30T04:29:27;6.10;99.90
25482;DHT22;13395;50.752;4.268;2023-04-30T04:31:52;6.20;99.90
25482;DHT22;13395;50.752;4.268;2023-04-30T04:34:19;6.20;99.90
25482;DHT22;13395;50.752;4.268;2023-04-30T04:36:45;6.20;99.90
25482;DHT22;13395;50.752;4.268;2023-04-30T04:39:10;6.30;99.90
25482;DHT22;13395;50.752;4.268;2023-04-30T04:41:36;6.30;99.90
25482;DHT22;13395;50.752;4.268;2023-04-30T04:44:02;6.30;99.90
25482;DHT22;13395;50.752;4.268;2023-04-30T04:46:28;6.30;99.90
25482;DHT22;13395;50.752;4.268;2023-04-30T04:48:54;6.30;99.90
25482;DHT22;13395;50.752;4.268;2023-04-30T04:51:19;6.40;99.90
25482;DHT22;13395;50.752;4.268;2023-04-30T04:53:45;6.40;99.90
25482;DHT22;13395;50.752;4.268;2023-04-30T04:56:11;6.60;99.90
25482;DHT22;13395;50.752;4.268;2023-04-30T04:58:37;7.10;99.90
25482;DHT22;13395;50.752;4.268;2023-04-30T05:01:02;7.10;99.90
25482;DHT22;13395;50.752;4.268;2023-04-30T05:03:30;7.30;99.90
25482;DHT22;13395;50.752;4.268;2023-04-30T05:05:55;7.90;99.90
25482;DHT22;13395;50.752;4.268;2023-04-30T05:08:21;8.40;99.90
25482;DHT22;13395;50.752;4.268;2023-04-30T05:10:47;8.90;99.90
25482;DHT22;13395;50.752;4.268;2023-04-30T05:13:12;9.30;99.90
25482;DHT22;13395;50.752;4.268;2023-04-30T05:15:38;9.70;99.90
25482;DHT22;13395;50.752;4.268;2023-04-30T05:18:03;10.20;99.90
25482;DHT22;13395;50.752;4.268;2023-04-30T05:20:29;10.50;99.90
25482;DHT22;13395;50.752;4.268;2023-04-30T05:22:54;10.50;99.90
25482;DHT22;13395;50.752;4.268;2023-04-30T05:25:20;10.40;99.90
25482;DHT22;13395;50.752;4.268;2023-04-30T05:27:45;10.20;99.90
25482;DHT22;13395;50.752;4.268;2023-04-30T05:30:11;10.00;99.90
25482;DHT22;13395;50.752;4.268;2023-04-30T05:32:36;9.80;99.90
25482;DHT22;13395;50.752;4.268;2023-04-30T05:35:02;9.60;99.90
25482;DHT22;13395;50.752;4.268;2023-04-30T05:37:28;9.50;99.90
25482;DHT22;13395;50.752;4.268;2023-04-30T05:39:53;9.40;99.90
25482;DHT22;13395;50.752;4.268;2023-04-30T05:42:19;9.20;99.90
25482;DHT22;13395;50.752;4.268;2023-04-30T05:44:45;9.00;99.90
25482;DHT22;13395;50.752;4.268;2023-04-30T05:47:10;9.10;99.90
25482;DHT22;13395;50.752;4.268;2023-04-30T05:49:36;9.00;99.90
25482;DHT22;13395;50.752;4.268;2023-04-30T05:52:02;9.10;99.90
25482;DHT22;13395;50.752;4.268;2023-04-30T05:54:28;9.20;99.90
25482;DHT22;13395;50.752;4.268;2023-04-30T05:56:54;9.30;99.90
25482;DHT22;13395;50.752;4.268;2023-04-30T05:59:19;9.40;99.90
25482;DHT22;13395;50.752;4.268;2023-04-30T06:01:45;9.40;99.90
25482;DHT22;13395;50.752;4.268;2023-04-30T06:04:10;9.50;99.90
25482;DHT22;13395;50.752;4.268;2023-04-30T06:06:36;9.60;99.90
25482;DHT22;13395;50.752;4.268;2023-04-30T06:09:01;9.70;99.90
25482;DHT22;13395;50.752;4.268;2023-04-30T06:11:28;9.90;99.90
25482;DHT22;13395;50.752;4.268;2023-04-30T06:13:53;10.00;99.90
25482;DHT22;13395;50.752;4.268;2023-04-30T06:16:19;10.10;99.90
25482;DHT22;13395;50.752;4.268;2023-04-30T06:18:44;10.30;99.90
25482;DHT22;13395;50.752;4.268;2023-04-30T06:21:10;10.50;99.90
25482;DHT22;13395;50.752;4.268;2023-04-30T06:23:35;10.60;99.90
25482;DHT22;13395;50.752;4.268;2023-04-30T06:26:02;10.90;99.90
25482;DHT22;13395;50.752;4.268;2023-04-30T06:28:27;11.10;99.90
25482;DHT22;13395;50.752;4.268;2023-04-30T06:30:53;11.30;99.90
25482;DHT22;13395;50.752;4.268;2023-04-30T06:33:19;11.50;99.90
25482;DHT22;13395;50.752;4.268;2023-04-30T06:35:45;11.70;99.90
25482;DHT22;13395;50.752;4.268;2023-04-30T06:38:10;12.00;99.90
25482;DHT22;13395;50.752;4.268;2023-04-30T06:40:36;12.40;99.90
25482;DHT22;13395;50.752;4.268;2023-04-30T06:43:01;13.00;99.90
25482;DHT22;13395;50.752;4.268;2023-04-30T06:45:27;13.70;99.90
25482;DHT22;13395;50.752;4.268;2023-04-30T06:47:53;15.10;99.90
25482;DHT22;13395;50.752;4.268;2023-04-30T06:50:19;16.70;99.90
25482;DHT22;13395;50.752;4.268;2023-04-30T06:52:46;18.10;99.90
25482;DHT22;13395;50.752;4.268;2023-04-30T06:55:11;19.50;99.90
25482;DHT22;13395;50.752;4.268;2023-04-30T06:57:37;20.50;99.90
25482;DHT22;13395;50.752;4.268;2023-04-30T07:00:05;21.20;99.90
25482;DHT22;13395;50.752;4.268;2023-04-30T07:02:31;21.60;99.90
25482;DHT22;13395;50.752;4.268;2023-04-30T07:04:56;22.10;98.80
25482;DHT22;13395;50.752;4.268;2023-04-30T07:07:22;22.50;97.60
25482;DHT22;13395;50.752;4.268;2023-04-30T07:09:48;22.50;96.10
25482;DHT22;13395;50.752;4.268;2023-04-30T07:12:13;22.80;95.70
25482;DHT22;13395;50.752;4.268;2023-04-30T07:14:39;23.40;94.30
25482;DHT22;13395;50.752;4.268;2023-04-30T07:17:04;23.60;93.70
25482;DHT22;13395;50.752;4.268;2023-04-30T07:19:30;24.30;92.90
25482;DHT22;13395;50.752;4.268;2023-04-30T07:21:56;25.00;92.00
25482;DHT22;13395;50.752;4.268;2023-04-30T07:24:22;25.90;90.50
25482;DHT22;13395;50.752;4.268;2023-04-30T07:26:47;26.40;86.70
25482;DHT22;13395;50.752;4.268;2023-04-30T07:29:13;27.20;86.80
25482;DHT22;13395;50.752;4.268;2023-04-30T07:31:38;27.50;85.10
25482;DHT22;13395;50.752;4.268;2023-04-30T07:34:04;28.20;81.60
25482;DHT22;13395;50.752;4.268;2023-04-30T07:36:29;28.10;78.20
25482;DHT22;13395;50.752;4.268;2023-04-30T07:38:55;28.40;76.90
25482;DHT22;13395;50.752;4.268;2023-04-30T07:41:22;28.90;76.70
25482;DHT22;13395;50.752;4.268;2023-04-30T07:43:48;29.30;74.10
25482;DHT22;13395;50.752;4.268;2023-04-30T07:46:13;29.40;71.30
25482;DHT22;13395;50.752;4.268;2023-04-30T07:48:39;29.70;72.60
25482;DHT22;13395;50.752;4.268;2023-04-30T07:51:04;29.80;70.40
25482;DHT22;13395;50.752;4.268;2023-04-30T07:53:30;29.90;69.20
25482;DHT22;13395;50.752;4.268;2023-04-30T07:55:55;30.00;70.00
25482;DHT22;13395;50.752;4.268;2023-04-30T07:58:21;30.10;66.90
25482;DHT22;13395;50.752;4.268;2023-04-30T08:00:46;30.00;67.90
25482;DHT22;13395;50.752;4.268;2023-04-30T08:03:12;29.70;65.50
25482;DHT22;13395;50.752;4.268;2023-04-30T08:05:37;29.60;64.40
25482;DHT22;13395;50.752;4.268;2023-04-30T08:08:03;29.50;65.80
25482;DHT22;13395;50.752;4.268;2023-04-30T08:10:29;29.60;63.80
25482;DHT22;13395;50.752;4.268;2023-04-30T08:12:54;29.30;65.00
25482;DHT22;13395;50.752;4.268;2023-04-30T08:15:20;29.50;64.00
25482;DHT22;13395;50.752;4.268;2023-04-30T08:17:48;28.70;65.00
25482;DHT22;13395;50.752;4.268;2023-04-30T08:20:14;28.70;64.00
25482;DHT22;13395;50.752;4.268;2023-04-30T08:22:40;29.20;64.40
25482;DHT22;13395;50.752;4.268;2023-04-30T08:25:05;29.30;62.10
25482;DHT22;13395;50.752;4.268;2023-04-30T08:27:31;28.80;63.00
25482;DHT22;13395;50.752;4.268;2023-04-30T08:29:56;28.30;62.80
25482;DHT22;13395;50.752;4.268;2023-04-30T08:32:22;28.20;61.80
25482;DHT22;13395;50.752;4.268;2023-04-30T08:34:47;28.10;61.30
25482;DHT22;13395;50.752;4.268;2023-04-30T08:37:13;27.80;60.30
25482;DHT22;13395;50.752;4.268;2023-04-30T08:39:38;27.70;62.30
25482;DHT22;13395;50.752;4.268;2023-04-30T08:42:07;28.60;61.40
25482;DHT22;13395;50.752;4.268;2023-04-30T08:44:33;29.50;59.80
25482;DHT22;13395;50.752;4.268;2023-04-30T08:47:00;29.10;61.70
25482;DHT22;13395;50.752;4.268;2023-04-30T08:49:26;29.70;59.10
25482;DHT22;13395;50.752;4.268;2023-04-30T08:51:52;29.60;58.60
25482;DHT22;13395;50.752;4.268;2023-04-30T08:54:18;29.10;59.30
25482;DHT22;13395;50.752;4.268;2023-04-30T08:56:44;29.50;58.10
25482;DHT22;13395;50.752;4.268;2023-04-30T08:59:10;30.10;58.50
25482;DHT22;13395;50.752;4.268;2023-04-30T09:01:36;30.40;56.70
25482;DHT22;13395;50.752;4.268;2023-04-30T09:04:02;31.10;55.30
25482;DHT22;13395;50.752;4.268;2023-04-30T09:06:28;31.50;55.70
25482;DHT22;13395;50.752;4.268;2023-04-30T09:08:53;31.30;54.40
25482;DHT22;13395;50.752;4.268;2023-04-30T09:11:26;31.10;54.10
25482;DHT22;13395;50.752;4.268;2023-04-30T09:13:53;30.20;55.10
25482;DHT22;13395;50.752;4.268;2023-04-30T09:16:19;29.70;54.40
25482;DHT22;13395;50.752;4.268;2023-04-30T09:18:45;30.00;54.30
25482;DHT22;13395;50.752;4.268;2023-04-30T09:21:12;30.50;54.20
25482;DHT22;13395;50.752;4.268;2023-04-30T09:23:57;30.70;55.20
25482;DHT22;13395;50.752;4.268;2023-04-30T09:26:33;29.70;54.10
25482;DHT22;13395;50.752;4.268;2023-04-30T09:28:59;28.60;54.50
25482;DHT22;13395;50.752;4.268;2023-04-30T09:31:26;27.30;57.00
25482;DHT22;13395;50.752;4.268;2023-04-30T09:33:52;28.00;57.20
25482;DHT22;13395;50.752;4.268;2023-04-30T09:36:18;28.20;56.00
25482;DHT22;13395;50.752;4.268;2023-04-30T09:38:44;28.80;55.90
25482;DHT22;13395;50.752;4.268;2023-04-30T09:41:26;30.10;54.60
25482;DHT22;13395;50.752;4.268;2023-04-30T09:43:55;30.30;53.50
25482;DHT22;13395;50.752;4.268;2023-04-30T09:46:21;31.30;51.40
25482;DHT22;13395;50.752;4.268;2023-04-30T09:48:48;31.80;51.80
25482;DHT22;13395;50.752;4.268;2023-04-30T09:51:19;32.20;50.60
25482;DHT22;13395;50.752;4.268;2023-04-30T09:53:45;32.00;50.40
25482;DHT22;13395;50.752;4.268;2023-04-30T09:56:11;31.30;50.70
25482;DHT22;13395;50.752;4.268;2023-04-30T09:58:39;32.20;49.60
25482;DHT22;13395;50.752;4.268;2023-04-30T10:01:08;32.70;49.60
25482;DHT22;13395;50.752;4.268;2023-04-30T10:03:40;33.20;49.70
25482;DHT22;13395;50.752;4.268;2023-04-30T10:06:07;33.30;48.90
25482;DHT22;13395;50.752;4.268;2023-04-30T10:08:35;33.00;47.20
25482;DHT22;13395;50.752;4.268;2023-04-30T10:11:03;32.60;48.10
25482;DHT22;13395;50.752;4.268;2023-04-30T10:13:33;31.30;49.20
25482;DHT22;13395;50.752;4.268;2023-04-30T10:16:03;30.90;50.30
25482;DHT22;13395;50.752;4.268;2023-04-30T10:18:32;31.20;47.50
25482;DHT22;13395;50.752;4.268;2023-04-30T10:20:58;31.80;48.90
25482;DHT22;13395;50.752;4.268;2023-04-30T10:23:26;30.50;47.80
25482;DHT22;13395;50.752;4.268;2023-04-30T10:25:52;30.60;49.60
25482;DHT22;13395;50.752;4.268;2023-04-30T10:28:17;30.10;48.90
25482;DHT22;13395;50.752;4.268;2023-04-30T10:30:43;30.40;47.20
25482;DHT22;13395;50.752;4.268;2023-04-30T10:33:17;31.00;46.60
25482;DHT22;13395;50.752;4.268;2023-04-30T10:35:54;31.40;46.00
25482;DHT22;13395;50.752;4.268;2023-04-30T10:38:22;31.60;46.20
25482;DHT22;13395;50.752;4.268;2023-04-30T10:40:49;32.00;46.10
25482;DHT22;13395;50.752;4.268;2023-04-30T10:43:18;32.00;47.00
25482;DHT22;13395;50.752;4.268;2023-04-30T10:45:45;31.10;45.70
25482;DHT22;13395;50.752;4.268;2023-04-30T10:48:11;30.90;47.50
25482;DHT22;13395;50.752;4.268;2023-04-30T10:50:39;31.40;44.50
25482;DHT22;13395;50.752;4.268;2023-04-30T10:53:06;31.40;45.10
25482;DHT22;13395;50.752;4.268;2023-04-30T10:55:37;32.00;44.90
25482;DHT22;13395;50.752;4.268;2023-04-30T10:58:25;32.10;43.80
25482;DHT22;13395;50.752;4.268;2023-04-30T11:00:59;31.60;46.30
25482;DHT22;13395;50.752;4.268;2023-04-30T11:03:26;31.60;43.60
25482;DHT22;13395;50.752;4.268;2023-04-30T11:05:52;32.20;43.70
25482;DHT22;13395;50.752;4.268;2023-04-30T11:08:18;31.20;45.00
25482;DHT22;13395;50.752;4.268;2023-04-30T11:10:58;30.80;45.00
25482;DHT22;13395;50.752;4.268;2023-04-30T11:13:28;30.20;46.20
25482;DHT22;13395;50.752;4.268;2023-04-30T11:15:53;29.40;47.60
25482;DHT22;13395;50.752;4.268;2023-04-30T11:18:19;28.80;48.10
25482;DHT22;13395;50.752;4.268;2023-04-30T11:20:48;28.90;47.60
25482;DHT22;13395;50.752;4.268;2023-04-30T11:23:15;29.30;47.50
25482;DHT22;13395;50.752;4.268;2023-04-30T11:25:42;29.50;46.30
25482;DHT22;13395;50.752;4.268;2023-04-30T11:28:12;29.30;47.00
25482;DHT22;13395;50.752;4.268;2023-04-30T11:30:38;29.70;46.50
25482;DHT22;13395;50.752;4.268;2023-04-30T11:33:03;30.40;45.00
25482;DHT22;13395;50.752;4.268;2023-04-30T11:35:29;30.40;48.20
25482;DHT22;13395;50.752;4.268;2023-04-30T11:37:56;31.10;45.30
25482;DHT22;13395;50.752;4.268;2023-04-30T11:40:22;31.50;45.30
25482;DHT22;13395;50.752;4.268;2023-04-30T11:42:48;31.60;44.20
25482;DHT22;13395;50.752;4.268;2023-04-30T11:45:14;31.60;44.90
25482;DHT22;13395;50.752;4.268;2023-04-30T11:47:42;31.40;44.80
25482;DHT22;13395;50.752;4.268;2023-04-30T11:50:08;31.10;44.70
25482;DHT22;13395;50.752;4.268;2023-04-30T11:52:34;31.00;45.40
25482;DHT22;13395;50.752;4.268;2023-04-30T11:55:03;30.50;46.50
25482;DHT22;13395;50.752;4.268;2023-04-30T11:57:33;30.30;47.60
25482;DHT22;13395;50.752;4.268;2023-04-30T12:00:06;30.30;48.20
25482;DHT22;13395;50.752;4.268;2023-04-30T12:02:31;30.50;47.30
25482;DHT22;13395;50.752;4.268;2023-04-30T12:04:57;29.20;47.90
25482;DHT22;13395;50.752;4.268;2023-04-30T12:07:22;29.70;48.30
25482;DHT22;13395;50.752;4.268;2023-04-30T12:09:51;30.10;48.60
25482;DHT22;13395;50.752;4.268;2023-04-30T12:12:30;29.60;48.20
25482;DHT22;13395;50.752;4.268;2023-04-30T12:14:55;30.00;48.00
25482;DHT22;13395;50.752;4.268;2023-04-30T12:17:31;29.90;48.70
25482;DHT22;13395;50.752;4.268;2023-04-30T12:19:57;29.90;49.40
25482;DHT22;13395;50.752;4.268;2023-04-30T12:22:22;30.60;48.30
25482;DHT22;13395;50.752;4.268;2023-04-30T12:24:48;30.80;48.10
25482;DHT22;13395;50.752;4.268;2023-04-30T12:27:13;30.60;47.70
25482;DHT22;13395;50.752;4.268;2023-04-30T12:29:39;30.90;46.30
25482;DHT22;13395;50.752;4.268;2023-04-30T12:32:08;30.90;45.90
25482;DHT22;13395;50.752;4.268;2023-04-30T12:34:33;29.90;46.80
25482;DHT22;13395;50.752;4.268;2023-04-30T12:37:02;29.30;48.40
25482;DHT22;13395;50.752;4.268;2023-04-30T12:39:31;29.30;48.10
25482;DHT22;13395;50.752;4.268;2023-04-30T12:41:58;29.00;48.40
25482;DHT22;13395;50.752;4.268;2023-04-30T12:44:26;28.80;49.20
25482;DHT22;13395;50.752;4.268;2023-04-30T12:46:52;28.80;48.70
25482;DHT22;13395;50.752;4.268;2023-04-30T12:51:58;29.30;48.90
25482;DHT22;13395;50.752;4.268;2023-04-30T12:54:28;29.50;48.60
25482;DHT22;13395;50.752;4.268;2023-04-30T12:59:29;30.20;47.10
25482;DHT22;13395;50.752;4.268;2023-04-30T13:02:04;30.10;48.20
25482;DHT22;13395;50.752;4.268;2023-04-30T13:04:35;30.10;47.00
25482;DHT22;13395;50.752;4.268;2023-04-30T13:07:01;29.40;46.60
25482;DHT22;13395;50.752;4.268;2023-04-30T13:09:27;29.00;46.30
25482;DHT22;13395;50.752;4.268;2023-04-30T13:11:53;28.90;46.10
25482;DHT22;13395;50.752;4.268;2023-04-30T13:14:19;28.30;46.50
25482;DHT22;13395;50.752;4.268;2023-04-30T13:16:44;27.60;48.20
25482;DHT22;13395;50.752;4.268;2023-04-30T13:19:10;26.80;48.20
25482;DHT22;13395;50.752;4.268;2023-04-30T13:21:36;26.30;47.70
25482;DHT22;13395;50.752;4.268;2023-04-30T13:24:01;25.80;50.00
25482;DHT22;13395;50.752;4.268;2023-04-30T13:26:27;25.50;51.60
25482;DHT22;13395;50.752;4.268;2023-04-30T13:28:53;25.30;51.40
25482;DHT22;13395;50.752;4.268;2023-04-30T13:31:18;24.90;52.00
25482;DHT22;13395;50.752;4.268;2023-04-30T13:33:44;24.60;52.60
25482;DHT22;13395;50.752;4.268;2023-04-30T13:36:10;24.70;51.30
25482;DHT22;13395;50.752;4.268;2023-04-30T13:38:36;24.30;52.90
25482;DHT22;13395;50.752;4.268;2023-04-30T13:41:03;23.70;54.90
25482;DHT22;13395;50.752;4.268;2023-04-30T13:43:29;23.40;55.70
25482;DHT22;13395;50.752;4.268;2023-04-30T13:45:55;23.50;55.80
25482;DHT22;13395;50.752;4.268;2023-04-30T13:48:22;23.50;54.90
25482;DHT22;13395;50.752;4.268;2023-04-30T13:50:48;23.40;54.40
25482;DHT22;13395;50.752;4.268;2023-04-30T13:53:14;23.40;54.80
25482;DHT22;13395;50.752;4.268;2023-04-30T13:55:39;23.10;55.80
25482;DHT22;13395;50.752;4.268;2023-04-30T13:58:05;22.90;55.70
25482;DHT22;13395;50.752;4.268;2023-04-30T14:00:30;22.90;56.60
25482;DHT22;13395;50.752;4.268;2023-04-30T14:02:56;23.20;56.50
25482;DHT22;13395;50.752;4.268;2023-04-30T14:05:21;23.40;55.30
25482;DHT22;13395;50.752;4.268;2023-04-30T14:07:47;23.50;55.70
25482;DHT22;13395;50.752;4.268;2023-04-30T14:10:12;23.20;55.80
25482;DHT22;13395;50.752;4.268;2023-04-30T14:12:38;23.10;58.70
25482;DHT22;13395;50.752;4.268;2023-04-30T14:15:04;22.80;57.10
25482;DHT22;13395;50.752;4.268;2023-04-30T14:17:30;22.80;57.20
25482;DHT22;13395;50.752;4.268;2023-04-30T14:19:55;22.90;58.00
25482;DHT22;13395;50.752;4.268;2023-04-30T14:22:21;23.20;56.30
25482;DHT22;13395;50.752;4.268;2023-04-30T14:24:47;23.30;57.40
25482;DHT22;13395;50.752;4.268;2023-04-30T14:27:13;23.50;57.10
25482;DHT22;13395;50.752;4.268;2023-04-30T14:29:38;23.90;56.50
25482;DHT22;13395;50.752;4.268;2023-04-30T14:32:05;23.80;55.60
25482;DHT22;13395;50.752;4.268;2023-04-30T14:34:30;23.80;55.40
25482;DHT22;13395;50.752;4.268;2023-04-30T14:36:56;23.80;55.00
25482;DHT22;13395;50.752;4.268;2023-04-30T14:39:24;23.80;55.80
25482;DHT22;13395;50.752;4.268;2023-04-30T14:41:49;23.50;56.50
25482;DHT22;13395;50.752;4.268;2023-04-30T14:44:15;23.50;56.40
25482;DHT22;13395;50.752;4.268;2023-04-30T14:46:40;23.60;55.10
25482;DHT22;13395;50.752;4.268;2023-04-30T14:49:06;23.80;53.80
25482;DHT22;13395;50.752;4.268;2023-04-30T14:51:31;23.80;54.20
25482;DHT22;13395;50.752;4.268;2023-04-30T14:53:57;23.70;53.90
25482;DHT22;13395;50.752;4.268;2023-04-30T14:56:23;23.70;56.50
25482;DHT22;13395;50.752;4.268;2023-04-30T14:58:49;23.70;56.80
25482;DHT22;13395;50.752;4.268;2023-04-30T15:01:15;23.60;56.70
25482;DHT22;13395;50.752;4.268;2023-04-30T15:03:41;23.60;56.60
25482;DHT22;13395;50.752;4.268;2023-04-30T15:06:06;23.30;56.40
25482;DHT22;13395;50.752;4.268;2023-04-30T15:08:32;23.20;57.20
25482;DHT22;13395;50.752;4.268;2023-04-30T15:10:58;23.30;56.40
25482;DHT22;13395;50.752;4.268;2023-04-30T15:13:24;23.20;56.40
25482;DHT22;13395;50.752;4.268;2023-04-30T15:15:49;23.10;57.90
25482;DHT22;13395;50.752;4.268;2023-04-30T15:18:15;23.20;55.90
25482;DHT22;13395;50.752;4.268;2023-04-30T15:20:40;23.00;55.40
25482;DHT22;13395;50.752;4.268;2023-04-30T15:23:06;23.10;56.20
25482;DHT22;13395;50.752;4.268;2023-04-30T15:25:32;23.30;56.10
25482;DHT22;13395;50.752;4.268;2023-04-30T15:27:59;23.60;56.50
25482;DHT22;13395;50.752;4.268;2023-04-30T15:30:24;23.20;57.00
25482;DHT22;13395;50.752;4.268;2023-04-30T15:32:50;22.90;56.70
25482;DHT22;13395;50.752;4.268;2023-04-30T15:35:15;22.60;57.80
25482;DHT22;13395;50.752;4.268;2023-04-30T15:37:41;22.70;58.60
25482;DHT22;13395;50.752;4.268;2023-04-30T15:40:06;22.80;57.30
25482;DHT22;13395;50.752;4.268;2023-04-30T15:42:32;22.80;57.60
25482;DHT22;13395;50.752;4.268;2023-04-30T15:44:58;22.90;57.20
25482;DHT22;13395;50.752;4.268;2023-04-30T15:47:23;23.10;56.40
25482;DHT22;13395;50.752;4.268;2023-04-30T15:49:49;23.10;56.00
25482;DHT22;13395;50.752;4.268;2023-04-30T15:52:15;23.40;56.80
25482;DHT22;13395;50.752;4.268;2023-04-30T15:54:40;23.60;56.30
25482;DHT22;13395;50.752;4.268;2023-04-30T15:57:06;23.80;56.30